Flight Track Log - Related Links

Times and Time Zones

All times are in EDT time to prevent confusion due to time zone crossing. See the N121JM flight status page for this flight to view local times or setup timezone preferences in your user account.

Time Position Orientation Groundspeed Altitude Reporting Facility
EDT Latitude Longitude Course Direction KTS MPH feet Rate Location/Type
Sun 04:57:17 PM 26.5856 -79.9953 North 281 323 9,100  Level Miami Center
Sun 04:58:49 PM 26.6934 -79.9619 16° North 311 358 11,800 1,222 Climbing FlightAware ADS-B (RJTF)
Sun 05:00:04 PM 26.8093 -79.9145 39° Northeast 376 433 12,500 1,241 Climbing FlightAware ADS-B (RJTF)
Sun 05:02:00 PM 27.0105 -79.5621 51° Northeast  Level FlightAware Approximate
Sun 05:03:00 PM 26.4917 -80.0917 17° North  Level FlightAware Approximate
Sun 05:04:00 PM 26.6001 -80.0833 North  Level FlightAware Approximate
Sun 05:05:06 PM 27.1367 -79.3797 54° Northeast 426 490 19,600  Level FlightAware ADS-B
Sun 05:05:58 PM 27.1913 -79.2956 54° Northeast 425 489 21,300 1,788 Climbing FlightAware ADS-B
Sun 05:08:24 PM 27.3680 -79.0198 54° Northeast 444 511 25,500 1,719 Climbing FlightAware ADS-B
Sun 05:09:03 PM 27.4060 -78.9602 55° Northeast 451 519 26,600 1,558 Climbing FlightAware ADS-B
Sun 05:09:41 PM 27.4638 -78.8736 52° Northeast 456 525 27,500 1,514 Climbing FlightAware ADS-B
Sun 05:14:36 PM 28.0355 -78.7045 North 441 507 35,000 1,536 Climbing FlightAware ADS-B
Sun 05:15:17 PM 28.1156 -78.6975 North 446 513 36,100 1,723 Climbing Miami Center
Sun 05:16:17 PM 28.2328 -78.6758 North 440 506 37,900 1,600 Climbing Miami Center
Sun 05:17:17 PM 28.3519 -78.6542 North 430 495 39,300 1,300 Climbing Miami Center
Sun 05:18:17 PM 28.4650 -78.6347 North 418 481 40,500 850 Climbing Miami Center
Sun 05:19:17 PM 28.5842 -78.6128 North 418 481 41,000 250 Climbing Miami Center
Sun 05:20:17 PM 28.7014 -78.5933 North 418 481 41,000  Level Miami Center
Sun 05:21:17 PM 28.8142 -78.5717 10° North 425 489 41,000  Level Miami Center
Sun 05:22:17 PM 28.9314 -78.5519 North 420 483 41,000  Level Miami Center
Sun 05:23:17 PM 29.0486 -78.5278 10° North 420 483 41,000  Level Miami Center
Sun 05:24:17 PM 29.1633 -78.5103 North 420 483 41,000  Level Miami Center
Sun 05:25:17 PM 29.2764 -78.4883 10° North 415 478 41,000  Level Miami Center
Sun 05:29:15 PM 29.7156 -78.3997 10° North 408 470 41,000  Level Jacksonville Center
Sun 05:30:15 PM 29.8339 -78.3822 North 418 481 41,000  Level Jacksonville Center
Sun 05:31:15 PM 29.9436 -78.3578 11° North 413 475 41,000  Level Jacksonville Center
Sun 05:32:15 PM 30.0578 -78.3381 North 407 468 41,000  Level Jacksonville Center
Sun 05:33:15 PM 30.1736 -78.3039 14° North 412 474 41,000  Level Jacksonville Center
Sun 05:34:15 PM 30.2914 -78.2717 13° North 417 480 41,000  Level Jacksonville Center
Sun 05:35:15 PM 30.4067 -78.2325 16° North 417 480 41,000  Level Jacksonville Center
Sun 05:37:15 PM 30.6336 -78.1586 17° North 422 486 41,000  Level Jacksonville Center
Sun 05:38:15 PM 30.7469 -78.1214 16° North 422 486 41,000 -51 Level Jacksonville Center
Sun 06:10:36 PM 34.4492 -76.8328 16° North 439 505 39,300 -87 Descending Washington Center
Sun 06:11:00 PM 34.2603 -76.8838 17° North  Level FlightAware Approximate
Sun 06:12:00 PM 34.3683 -76.8439 17° North  Level FlightAware Approximate
Sun 06:12:41 PM 34.6722 -76.7519 17° North 418 481 38,000  Level Washington Center
Sun 06:13:00 PM 34.4762 -76.8040 17° North  Level FlightAware Approximate
Sun 06:13:45 PM 34.7839 -76.7103 17° North 418 481 37,400  Level Washington Center
Sun 06:14:00 PM 34.5842 -76.7640 17° North  Level FlightAware Approximate
Sun 06:14:45 PM 34.8969 -76.6697 16° North 420 483 36,800  Level Washington Center
Sun 06:15:00 PM 34.6922 -76.7243 16° North  Level FlightAware Approximate
Sun 06:15:48 PM 35.0344 -76.6203 16° North 427 491 36,100  Level Washington Center
Sun 06:16:00 PM 34.8005 -76.6857 16° North  Level FlightAware Approximate
Sun 06:16:49 PM 35.1403 -76.5808 17° North 431 496 35,500  Level Washington Center
Sun 06:17:00 PM 34.9088 -76.6470 16° North  Level FlightAware Approximate
Sun 06:17:52 PM 35.2803 -76.5292 17° North 434 499 34,800  Level Washington Center
Sun 06:18:00 PM 35.0165 -76.6084 16° North  Level FlightAware Approximate
Sun 06:18:53 PM 35.3792 -76.4928 17° North 442 509 34,200  Level Washington Center
Sun 06:19:00 PM 35.1242 -76.5697 16° North  Level FlightAware Approximate
Sun 06:19:56 PM 35.5219 -76.4394 17° North 447 514 33,500  Level Washington Center
Sun 06:20:00 PM 35.2318 -76.5309 16° North  Level FlightAware Approximate
Sun 06:21:00 PM 35.6439 -76.3936 17° North 456 525 33,000  Level Washington Center
Sun 06:22:01 PM 35.7672 -76.3497 16° North 461 531 33,000  Level Washington Center
Sun 06:23:01 PM 35.8906 -76.3033 17° North 461 531 33,000  Level Washington Center
Sun 06:24:06 PM 36.0114 -76.2569 17° North 461 531 33,000  Level Washington Center
Sun 06:25:06 PM 36.1556 -76.2014 17° North 455 524 33,000 -393 Level Washington Center
Sun 06:26:08 PM 36.2783 -76.1553 17° North 457 526 32,200 -768 Descending Washington Center
Sun 06:27:11 PM 36.4022 -76.1078 17° North 464 534 31,400 -774 Descending Washington Center
Sun 06:28:12 PM 36.5281 -76.0597 17° North 470 541 30,600 -768 Descending Washington Center
Sun 06:29:16 PM 36.6547 -76.0119 17° North 471 542 29,800 -714 Descending Washington Center
Sun 06:30:18 PM 36.8019 -75.9539 18° North 479 551 29,100 -393 Descending Washington Center
Sun 06:31:18 PM 36.9325 -75.9047 17° North 490 564 29,000 -48 Descending Washington Center
Sun 06:32:22 PM 37.0567 -75.8567 17° North 482 555 29,000  Level Washington Center
Sun 06:33:23 PM 37.1842 -75.8061 18° North 482 555 29,000  Level Washington Center
Sun 06:34:26 PM 37.3372 -75.7469 17° North 482 555 29,000  Level Washington Center
Sun 06:35:27 PM 37.4658 -75.6969 17° North 482 555 29,000  Level Washington Center
Sun 06:36:30 PM 37.5942 -75.6464 17° North 482 555 29,000 -242 Level Washington Center
Sun 06:37:31 PM 37.7228 -75.5961 17° North 483 556 28,500 -1,104 Descending Washington Center
Sun 06:38:35 PM 37.8522 -75.5431 18° North 485 558 26,700 -2,064 Descending Washington Center
Sun 06:39:36 PM 37.9747 -75.4947 17° North 464 534 24,200 -1,310 Descending Washington Center
Sun 06:47:40 PM 38.8342 -74.9691 27° Northeast 379 436 14,800 -1,144 Descending FlightAware ADS-B (KWWD)
Sun 06:48:10 PM 38.8814 -74.9390 27° Northeast 382 440 14,400 -1,082 Descending FlightAware ADS-B (KWWD)
Sun 06:48:41 PM 38.9299 -74.9074 27° Northeast 379 436 13,700 -1,279 Descending FlightAware ADS-B (KWWD)
Sun 06:49:11 PM 38.9777 -74.8765 27° Northeast 378 435 13,100 -1,200 Descending FlightAware ADS-B (KWWD)
Sun 06:49:51 PM 39.0394 -74.8365 28° Northeast 365 420 12,300 -1,200 Descending FlightAware ADS-B (KWWD)
Sun 06:50:21 PM 39.0860 -74.8106 12° North 365 420 11,700 -1,200 Descending FlightAware ADS-B (KWWD)
Sun 06:50:41 PM 39.1189 -74.8099 352° North 355 409 11,300 -1,300 Descending FlightAware ADS-B (KWWD)
Sun 06:51:21 PM 39.1795 -74.8315 344° North 316 364 10,400 -1,273 Descending FlightAware ADS-B (KWWD)
Sun 06:51:47 PM 39.2152 -74.8451 343° North 306 352 9,900 -1,102 Descending FlightAware ADS-B (KWWD)
Sun 06:52:10 PM 39.2465 -74.8571 343° North 285 328 9,500 -1,000 Descending FlightAware ADS-B (KWWD)
Sun 06:52:29 PM 39.2708 -74.8660 344° North 285 328 9,200 -900 Descending FlightAware ADS-B (KWWD)
Sun 06:52:50 PM 39.2965 -74.8759 343° North 273 314 8,900 -439 Descending FlightAware ADS-B (KWWD)
Sun 06:53:10 PM 39.3212 -74.8851 343° North 273 314 8,900  Level FlightAware ADS-B (KWWD)
Sun 06:53:29 PM 39.3454 -74.8945 343° North 274 315 8,900  Level FlightAware ADS-B (KWWD)
Sun 06:53:52 PM 39.3737 -74.9051 344° North 283 326 8,900  Level FlightAware ADS-B (KWWD)
Sun 06:54:12 PM 39.3991 -74.9148 344° North 285 328 8,900  Level FlightAware ADS-B (KWWD)
Sun 06:54:33 PM 39.4256 -74.9247 344° North 287 330 8,900  Level FlightAware ADS-B (KWWD)
Sun 06:55:22 PM 39.2779 -74.8687 344° North 290 334 8,900 -207 Level FlightAware ADS-B (KPHL)
Sun 06:57:27 PM 39.5296 -74.9643 327° Northwest 231 266 8,300 -439 Descending FlightAware ADS-B (KPHL)
Sun 06:58:06 PM 39.6145 -75.0318 327° Northwest 222 255 7,700 -909 Descending FlightAware ADS-B (KPHL)
Sun 06:58:33 PM 39.6613 -75.0695 341° North 216 249 7,300 -873 Descending FlightAware ADS-B (KPHL)
Sun 06:59:01 PM 39.7076 -75.0736 357° North 210 242 6,900 -500 Descending FlightAware ADS-B (KWWD)
Sun 06:59:21 PM 39.7126 -75.0740 356° North 218 251 6,900 -154 Level FlightAware ADS-B (KPHL)
Sun 06:59:40 PM 39.7140 -75.0742 347° North 218 251 6,800 -1,071 Descending FlightAware ADS-B (KPHL)
Sun 07:00:17 PM 39.7675 -75.0878 353° North 222 255 5,900 -673 Descending FlightAware ADS-B (KPHL)
Sun 07:01:27 PM 39.7675 -75.0878 48° Northeast 230 265 5,600 -440 Descending FlightAware ADS-B (KPHL)
Sun 07:02:06 PM 39.8309 -74.9838 71° East 219 252 5,100 -420 Descending FlightAware ADS-B (KPHL)
Sun 07:03:07 PM 39.8505 -74.9088 70° East 215 247 4,900 -218 Descending FlightAware ADS-B (KPHL)
Sun 07:07:36 PM 39.8505 -74.9088 78° East 209 241 3,900 -206 Descending FlightAware ADS-B (KPHL)
Sun 07:08:27 PM 39.9167 -74.9833 78° East 163 188 3,800 -541 Descending Philadelphia TRACON
Sun 07:09:27 PM 39.9167 -75.0500 270° West 169 194 2,900 -900 Descending Philadelphia TRACON
Sun 07:10:27 PM 39.9000 -75.1000 247° West 162 186 2,000 -843 Descending Philadelphia TRACON
Sun 07:11:28 PM 39.8833 -75.1667 252° West 153 176 1,200 -793 Descending Philadelphia TRACON
Sun 07:12:28 PM 39.8833 -75.2000 270° West 122 140 400 -800 Descending Philadelphia TRACON
Sun 07:15:00 PM 39.8667 -75.2333 278° West  Level FlightAware Approximate
Sun 07:22:00 PM 39.8722 -75.2409 278° West  Level Estimated
Sun 07:23:00 PM 39.8722 -75.2409 95° East  Level Estimated
Sun 07:24:00 PM 39.8722 -75.2409 95° East  Level Estimated

Login

Don't have an account? Register now (free) for customized features, flight alerts, and more!